createdAt,value
2023-02-16T00:02:41.425Z,101967.91
2023-02-16T00:05:32.090Z,101983.03
2023-02-16T00:08:17.014Z,101972.72
2023-02-16T00:11:20.828Z,101968.59
2023-02-16T00:14:10.013Z,101975.16
2023-02-16T00:16:57.203Z,101972.09
2023-02-16T00:19:42.755Z,101969.47
2023-02-16T00:22:27.878Z,101978.78
2023-02-16T00:25:12.653Z,101966.09
2023-02-16T00:27:57.875Z,101969.41
2023-02-16T00:30:42.609Z,101969.00
2023-02-16T00:33:27.641Z,101971.41
2023-02-16T00:36:12.527Z,101964.25
2023-02-16T00:38:57.775Z,101967.94
2023-02-16T00:41:51.424Z,101966.91
2023-02-16T00:44:41.038Z,101973.84
2023-02-16T00:47:33.023Z,101959.00
2023-02-16T00:50:22.368Z,101963.78
2023-02-16T00:53:07.203Z,101958.84
2023-02-16T00:55:53.364Z,101971.81
2023-02-16T00:58:38.296Z,101960.03
2023-02-16T01:01:25.803Z,101951.41
2023-02-16T01:04:19.230Z,101948.28
2023-02-16T01:07:30.220Z,101951.03
2023-02-16T01:10:38.697Z,101952.84
2023-02-16T01:13:26.197Z,101953.16
2023-02-16T01:16:18.116Z,101942.09
2023-02-16T01:19:03.914Z,101944.88
2023-02-16T01:21:49.122Z,101949.25
2023-02-16T01:24:34.471Z,101944.59
2023-02-16T01:27:19.795Z,101945.66
2023-02-16T01:30:06.641Z,101946.88
2023-02-16T01:32:52.360Z,101938.97
2023-02-16T01:35:37.791Z,101940.75
2023-02-16T01:38:26.822Z,101939.13
2023-02-16T01:41:40.097Z,101935.44
2023-02-16T01:44:29.161Z,101926.97
2023-02-16T01:47:29.140Z,101934.44
2023-02-16T01:50:27.176Z,101937.63
2023-02-16T01:53:20.863Z,101928.25
2023-02-16T01:56:17.566Z,101923.75
2023-02-16T01:59:31.357Z,101932.56
2023-02-16T02:02:28.858Z,101931.84
2023-02-16T02:05:35.443Z,101922.03
2023-02-16T02:08:41.698Z,101927.53
2023-02-16T02:11:32.426Z,101926.13
2023-02-16T02:14:22.462Z,101930.44
2023-02-16T02:17:13.044Z,101920.63
2023-02-16T02:20:22.561Z,101920.28
2023-02-16T02:23:32.423Z,101920.97
2023-02-16T02:26:36.808Z,101919.91
2023-02-16T02:29:30.831Z,101927.88
2023-02-16T02:33:00.416Z,101925.84
2023-02-16T02:36:00.898Z,101923.41
2023-02-16T02:39:20.888Z,101922.13
2023-02-16T02:42:39.026Z,101920.03
2023-02-16T02:45:30.019Z,101918.31
2023-02-16T02:48:15.245Z,101908.25
2023-02-16T02:51:28.012Z,101910.50
2023-02-16T02:54:47.128Z,101905.72
2023-02-16T02:57:57.654Z,101905.00
2023-02-16T03:00:47.067Z,101904.72
2023-02-16T03:03:38.629Z,101911.25
2023-02-16T03:06:28.333Z,101910.84
2023-02-16T03:09:15.279Z,101917.56
2023-02-16T03:12:20.547Z,101908.88
2023-02-16T03:15:06.278Z,101899.44
2023-02-16T03:18:13.568Z,101898.94
2023-02-16T03:21:17.591Z,101899.41
2023-02-16T03:24:25.080Z,101892.69
2023-02-16T03:27:30.519Z,101890.84
2023-02-16T03:30:17.959Z,101887.47
2023-02-16T03:33:03.224Z,101891.72
2023-02-16T03:35:49.516Z,101894.53
2023-02-16T03:38:35.348Z,101890.47
2023-02-16T03:41:20.300Z,101887.66
2023-02-16T03:44:05.486Z,101880.75
2023-02-16T03:46:50.708Z,101885.50
2023-02-16T03:49:35.825Z,101886.72
2023-02-16T03:52:20.826Z,101890.03
2023-02-16T03:55:06.179Z,101887.06
2023-02-16T03:57:51.305Z,101887.75
2023-02-16T04:00:37.232Z,101895.03
2023-02-16T04:03:22.060Z,101879.13
2023-02-16T04:06:07.711Z,101881.50
2023-02-16T04:08:52.861Z,101879.88
2023-02-16T04:11:56.346Z,101888.38
2023-02-16T04:14:43.692Z,101882.78
2023-02-16T04:17:29.007Z,101876.19
2023-02-16T04:20:17.921Z,101874.16
2023-02-16T04:23:03.474Z,101877.25
2023-02-16T04:25:48.623Z,101879.63
2023-02-16T04:28:33.724Z,101875.28
2023-02-16T04:31:18.610Z,101885.50
2023-02-16T04:34:03.788Z,101881.88
2023-02-16T04:36:48.868Z,101887.66
2023-02-16T04:39:34.183Z,101891.19
2023-02-16T04:42:19.115Z,101893.97
2023-02-16T04:45:04.376Z,101896.03
2023-02-16T04:47:49.566Z,101896.16
2023-02-16T04:50:34.672Z,101892.78
2023-02-16T04:53:19.594Z,101892.06
2023-02-16T04:56:04.845Z,101888.59
2023-02-16T04:58:49.995Z,101890.34
2023-02-16T05:01:35.249Z,101890.34
2023-02-16T05:04:20.221Z,101895.56
2023-02-16T05:07:05.334Z,101888.84
2023-02-16T05:09:50.938Z,101888.22
2023-02-16T05:12:54.777Z,101889.06
2023-02-16T05:15:40.232Z,101877.88
2023-02-16T05:18:25.066Z,101884.75
2023-02-16T05:21:28.955Z,101879.03
2023-02-16T05:24:14.045Z,101886.91
2023-02-16T05:26:58.889Z,101887.69
2023-02-16T05:29:43.858Z,101881.63
2023-02-16T05:32:28.866Z,101877.13
2023-02-16T05:35:13.639Z,101882.59
2023-02-16T05:37:58.649Z,101882.72
2023-02-16T05:40:44.455Z,101881.38
2023-02-16T05:43:29.583Z,101876.28
2023-02-16T05:46:14.479Z,101887.81
2023-02-16T05:49:00.881Z,101892.38
2023-02-16T05:51:46.008Z,101891.41
2023-02-16T05:54:31.041Z,101888.63
2023-02-16T05:57:16.012Z,101896.16
2023-02-16T06:00:01.202Z,101893.09
2023-02-16T06:02:46.158Z,101896.34
2023-02-16T06:05:31.303Z,101898.13
2023-02-16T06:08:16.382Z,101903.44
2023-02-16T06:11:01.874Z,101897.53
2023-02-16T06:13:46.852Z,101898.63
2023-02-16T06:16:33.491Z,101893.69
2023-02-16T06:19:19.499Z,101892.03
2023-02-16T06:22:04.893Z,101882.22
2023-02-16T06:24:50.028Z,101889.13
2023-02-16T06:27:34.903Z,101886.19
2023-02-16T06:30:19.843Z,101894.78
2023-02-16T06:33:05.127Z,101899.75
2023-02-16T06:35:50.148Z,101888.06
2023-02-16T06:38:35.366Z,101889.84
2023-02-16T06:41:34.172Z,101884.56
2023-02-16T06:44:19.362Z,101892.19
2023-02-16T06:47:10.827Z,101891.94
2023-02-16T06:49:56.001Z,101891.63
2023-02-16T06:52:41.235Z,101897.91
2023-02-16T06:55:26.263Z,101896.56
2023-02-16T06:58:12.244Z,101891.56
2023-02-16T07:00:57.176Z,101901.34
2023-02-16T07:03:42.243Z,101897.16
2023-02-16T07:06:29.829Z,101893.44
2023-02-16T07:09:14.968Z,101899.94
2023-02-16T07:11:59.955Z,101895.66
2023-02-16T07:14:45.185Z,101898.50
2023-02-16T07:17:30.117Z,101895.06
2023-02-16T07:20:21.827Z,101902.47
2023-02-16T07:23:06.974Z,101898.22
2023-02-16T07:25:52.829Z,101895.38
2023-02-16T07:28:37.555Z,101898.06
2023-02-16T07:31:26.167Z,101910.22
2023-02-16T07:34:11.546Z,101905.75
2023-02-16T07:37:03.849Z,101892.81
2023-02-16T07:39:48.901Z,101897.00
2023-02-16T07:42:39.818Z,101893.69
2023-02-16T07:45:24.707Z,101899.38
2023-02-16T07:48:09.862Z,101898.59
2023-02-16T07:50:54.943Z,101899.59
2023-02-16T07:53:39.938Z,101900.28
2023-02-16T07:56:27.407Z,101896.69
2023-02-16T07:59:16.397Z,101899.06
2023-02-16T08:02:01.405Z,101898.44
2023-02-16T08:04:47.217Z,101905.03
2023-02-16T08:07:32.404Z,101900.00
2023-02-16T08:10:17.361Z,101895.41
2023-02-16T08:13:02.601Z,101897.09
2023-02-16T08:15:47.418Z,101893.34
2023-02-16T08:18:32.531Z,101889.91
2023-02-16T08:21:26.817Z,101885.56
2023-02-16T08:24:13.113Z,101889.84
2023-02-16T08:26:58.185Z,101879.38
2023-02-16T08:29:43.221Z,101885.69
2023-02-16T08:32:28.329Z,101885.00
2023-02-16T08:35:13.511Z,101889.22
2023-02-16T08:37:59.843Z,101885.63
2023-02-16T08:40:49.022Z,101880.53
2023-02-16T08:43:34.834Z,101885.94
2023-02-16T08:46:20.139Z,101883.13
2023-02-16T08:49:06.385Z,101887.53
2023-02-16T08:51:54.618Z,101876.50
2023-02-16T08:54:39.774Z,101873.81
2023-02-16T08:57:24.795Z,101879.63
2023-02-16T09:00:29.345Z,101879.38
2023-02-16T09:03:16.323Z,101869.81
2023-02-16T09:06:04.088Z,101885.78
2023-02-16T09:08:54.159Z,101873.47
2023-02-16T09:11:39.150Z,101881.25
2023-02-16T09:14:30.832Z,101888.47
2023-02-16T09:17:16.325Z,101887.09
2023-02-16T09:20:01.796Z,101883.59
2023-02-16T09:22:47.508Z,101887.25
2023-02-16T09:25:37.569Z,101881.59
2023-02-16T09:28:22.710Z,101885.00
2023-02-16T09:31:17.602Z,101880.91
2023-02-16T09:34:18.171Z,101884.44
2023-02-16T09:37:09.834Z,101871.22
2023-02-16T09:39:54.782Z,101875.47
2023-02-16T09:42:55.115Z,101873.72
2023-02-16T09:45:44.866Z,101864.47
2023-02-16T09:48:37.304Z,101864.59
2023-02-16T09:51:35.015Z,101871.00
2023-02-16T09:54:35.028Z,101873.56
2023-02-16T09:57:46.178Z,101879.09
2023-02-16T10:00:34.303Z,101883.06
2023-02-16T10:03:52.764Z,101880.16
2023-02-16T10:06:54.470Z,101882.81
2023-02-16T10:09:44.788Z,101891.16
2023-02-16T10:12:38.319Z,101886.00
2023-02-16T10:15:29.212Z,101893.28
2023-02-16T10:18:24.136Z,101897.84
2023-02-16T10:21:17.550Z,101905.00
2023-02-16T10:24:05.662Z,101896.78
2023-02-16T10:27:08.183Z,101895.16
2023-02-16T10:29:54.254Z,101894.13
2023-02-16T10:32:53.568Z,101899.28
2023-02-16T10:35:43.076Z,101894.09
2023-02-16T10:38:53.827Z,101891.19
2023-02-16T10:41:44.331Z,101885.59
2023-02-16T10:44:54.689Z,101888.94
2023-02-16T10:47:43.437Z,101889.56
2023-02-16T10:50:33.100Z,101876.97
2023-02-16T10:53:21.541Z,101879.72
2023-02-16T10:56:34.370Z,101876.00
2023-02-16T10:59:22.466Z,101871.50
2023-02-16T11:02:25.669Z,101867.09
2023-02-16T11:05:26.102Z,101858.47
2023-02-16T11:08:12.728Z,101863.53
2023-02-16T11:10:57.680Z,101859.19
2023-02-16T11:13:48.411Z,101856.28
2023-02-16T11:16:33.861Z,101852.22
2023-02-16T11:19:23.313Z,101849.94
2023-02-16T11:22:25.865Z,101840.44
2023-02-16T11:25:23.785Z,101839.88
2023-02-16T11:28:11.242Z,101836.25
2023-02-16T11:31:09.832Z,101839.97
2023-02-16T11:34:05.834Z,101829.88
2023-02-16T11:36:51.565Z,101829.84
2023-02-16T11:39:40.090Z,101833.19
2023-02-16T11:42:33.354Z,101824.38
2023-02-16T11:45:36.711Z,101815.94
2023-02-16T11:48:28.430Z,101810.91
2023-02-16T11:51:30.281Z,101808.22
2023-02-16T11:54:20.824Z,101804.78
2023-02-16T11:57:09.338Z,101802.78
2023-02-16T11:59:58.272Z,101807.16
2023-02-16T12:03:09.546Z,101792.38
2023-02-16T12:06:12.201Z,101793.63
2023-02-16T12:09:03.119Z,101787.47
2023-02-16T12:11:59.688Z,101796.91
2023-02-16T12:14:58.828Z,101788.13
2023-02-16T12:17:54.723Z,101783.47
2023-02-16T12:20:49.560Z,101782.72
2023-02-16T12:23:34.810Z,101786.75
2023-02-16T12:26:46.921Z,101788.75
2023-02-16T12:30:01.414Z,101787.56
2023-02-16T12:32:57.702Z,101789.78
2023-02-16T12:35:56.822Z,101798.66
2023-02-16T12:39:17.794Z,101797.81
2023-02-16T12:42:11.914Z,101792.78
2023-02-16T12:45:03.051Z,101798.31
2023-02-16T12:48:11.185Z,101786.88
2023-02-16T12:50:58.108Z,101771.59
2023-02-16T12:53:57.646Z,101778.28
2023-02-16T12:56:47.683Z,101778.84
2023-02-16T12:59:41.697Z,101779.03
2023-02-16T13:02:31.590Z,101769.22
2023-02-16T13:05:25.820Z,101753.41
2023-02-16T13:08:19.740Z,101740.88
2023-02-16T13:11:43.690Z,101734.41
2023-02-16T13:14:33.506Z,101727.31
2023-02-16T13:17:28.303Z,101732.59
2023-02-16T13:20:17.090Z,101739.44
2023-02-16T13:23:38.028Z,101740.88
2023-02-16T13:26:46.937Z,101738.34
2023-02-16T13:30:00.178Z,101732.03
2023-02-16T13:33:14.099Z,101722.88
2023-02-16T13:36:18.917Z,101727.38
2023-02-16T13:39:18.644Z,101721.38
2023-02-16T13:42:29.189Z,101720.13
2023-02-16T13:45:38.884Z,101720.00
2023-02-16T13:48:37.934Z,101715.81
2023-02-16T13:51:26.044Z,101711.63
2023-02-16T13:54:30.452Z,101703.84
2023-02-16T13:57:50.915Z,101691.03
2023-02-16T14:00:38.485Z,101692.72
2023-02-16T14:03:23.161Z,101684.34
2023-02-16T14:06:32.199Z,101680.84
2023-02-16T14:09:17.302Z,101662.00
2023-02-16T14:12:17.264Z,101662.81
2023-02-16T14:15:20.384Z,101659.47
2023-02-16T14:18:25.927Z,101650.09
2023-02-16T14:21:41.765Z,101649.78
2023-02-16T14:24:35.599Z,101647.41
2023-02-16T14:27:42.816Z,101646.41
2023-02-16T14:30:54.545Z,101636.19
2023-02-16T14:33:42.810Z,101645.41
2023-02-16T14:36:29.025Z,101635.97
2023-02-16T14:39:18.706Z,101635.38
2023-02-16T14:42:16.610Z,101639.59
2023-02-16T14:45:26.358Z,101642.75
2023-02-16T14:48:35.799Z,101631.19
2023-02-16T14:51:53.482Z,101629.13
2023-02-16T14:55:16.282Z,101625.63
2023-02-16T14:58:23.253Z,101627.16
2023-02-16T15:01:12.891Z,101627.75
2023-02-16T15:03:58.905Z,101623.06
2023-02-16T15:06:47.485Z,101618.84
2023-02-16T15:09:34.481Z,101621.81
2023-02-16T15:12:22.605Z,101615.47
2023-02-16T15:15:11.864Z,101628.34
2023-02-16T15:17:57.263Z,101616.03
2023-02-16T15:20:45.462Z,101620.03
2023-02-16T15:23:34.604Z,101618.75
2023-02-16T15:26:24.377Z,101615.38
2023-02-16T15:29:26.777Z,101610.22
2023-02-16T15:32:18.201Z,101604.19
2023-02-16T15:35:23.264Z,101600.47
2023-02-16T15:38:31.629Z,101594.66
2023-02-16T15:41:27.657Z,101593.72
2023-02-16T15:44:34.361Z,101580.19
2023-02-16T15:47:24.698Z,101583.03
2023-02-16T15:50:14.170Z,101576.59
2023-02-16T15:52:59.564Z,101580.09
2023-02-16T15:55:46.632Z,101582.34
2023-02-16T15:58:32.896Z,101589.53
2023-02-16T16:01:31.220Z,101595.16
2023-02-16T16:04:23.106Z,101602.00
2023-02-16T16:07:13.498Z,101607.88
2023-02-16T16:10:00.171Z,101613.50
2023-02-16T16:12:46.833Z,101619.78
2023-02-16T16:15:38.745Z,101613.50
2023-02-16T16:18:46.025Z,101611.88
2023-02-16T16:21:35.749Z,101613.69
2023-02-16T16:24:45.055Z,101615.25
2023-02-16T16:27:32.894Z,101618.03
2023-02-16T16:30:20.519Z,101620.56
2023-02-16T16:33:08.898Z,101620.25
2023-02-16T16:35:54.033Z,101620.41
2023-02-16T16:38:41.496Z,101621.66
2023-02-16T16:41:28.462Z,101616.78
2023-02-16T16:44:38.690Z,101618.75
2023-02-16T16:47:38.901Z,101624.31
2023-02-16T16:50:39.526Z,101619.84
2023-02-16T16:53:30.689Z,101622.50
2023-02-16T16:56:15.637Z,101613.16
2023-02-16T16:59:01.100Z,101613.84
2023-02-16T17:01:49.865Z,101630.31
2023-02-16T17:04:34.765Z,101626.66
2023-02-16T17:07:19.666Z,101625.69
2023-02-16T17:10:05.742Z,101623.31
2023-02-16T17:12:53.399Z,101619.94
2023-02-16T17:15:58.284Z,101618.97
2023-02-16T17:18:43.010Z,101628.41
2023-02-16T17:21:27.957Z,101627.00
2023-02-16T17:24:14.083Z,101623.06
2023-02-16T17:26:59.000Z,101622.78
2023-02-16T17:29:46.428Z,101623.44
2023-02-16T17:32:31.526Z,101628.78
2023-02-16T17:35:16.433Z,101627.78
2023-02-16T17:38:07.581Z,101626.09
2023-02-16T17:40:55.427Z,101629.56
2023-02-16T17:43:40.486Z,101625.81
2023-02-16T17:46:26.667Z,101618.13
2023-02-16T17:49:13.232Z,101613.00
2023-02-16T17:51:58.443Z,101612.84
2023-02-16T17:54:43.522Z,101600.72
2023-02-16T17:57:29.185Z,101606.94
2023-02-16T18:00:18.382Z,101621.47
2023-02-16T18:03:03.963Z,101624.13
2023-02-16T18:05:49.733Z,101620.06
2023-02-16T18:08:34.749Z,101627.66
2023-02-16T18:11:19.496Z,101626.69
2023-02-16T18:14:04.687Z,101631.00
2023-02-16T18:16:53.244Z,101632.16
2023-02-16T18:19:38.596Z,101626.00
2023-02-16T18:22:23.417Z,101626.94
2023-02-16T18:25:08.617Z,101628.19
2023-02-16T18:27:53.785Z,101630.44
2023-02-16T18:30:38.975Z,101631.78
2023-02-16T18:33:24.337Z,101637.34
2023-02-16T18:36:09.653Z,101629.56
2023-02-16T18:38:54.207Z,101629.66
2023-02-16T18:41:39.229Z,101634.41
2023-02-16T18:44:24.001Z,101638.88
2023-02-16T18:47:09.124Z,101635.44
2023-02-16T18:49:54.064Z,101630.09
2023-02-16T18:52:42.204Z,101634.63
2023-02-16T18:55:32.663Z,101642.03
2023-02-16T18:58:17.649Z,101646.22
2023-02-16T19:01:12.198Z,101645.53
2023-02-16T19:03:57.620Z,101644.78
2023-02-16T19:06:42.698Z,101641.38
2023-02-16T19:09:27.683Z,101654.75
2023-02-16T19:12:12.702Z,101646.91
2023-02-16T19:14:57.773Z,101642.47
2023-02-16T19:17:43.173Z,101644.25
2023-02-16T19:20:29.489Z,101647.19
2023-02-16T19:23:14.355Z,101649.00
2023-02-16T19:25:59.258Z,101640.78
2023-02-16T19:28:45.018Z,101639.97
2023-02-16T19:31:31.639Z,101634.47
2023-02-16T19:34:16.916Z,101636.97
2023-02-16T19:37:02.428Z,101634.53
2023-02-16T19:39:47.515Z,101640.53
2023-02-16T19:42:32.836Z,101645.00
2023-02-16T19:45:17.897Z,101647.31
2023-02-16T19:48:02.861Z,101646.47
2023-02-16T19:50:47.766Z,101640.88
2023-02-16T19:53:33.640Z,101643.63
2023-02-16T19:56:24.167Z,101635.59
2023-02-16T19:59:09.766Z,101633.03
2023-02-16T20:01:54.905Z,101634.84
2023-02-16T20:04:40.090Z,101634.56
2023-02-16T20:07:25.044Z,101637.06
2023-02-16T20:10:10.304Z,101637.91
2023-02-16T20:12:55.099Z,101633.59
2023-02-16T20:15:40.364Z,101655.25
2023-02-16T20:18:25.240Z,101649.81
2023-02-16T20:21:16.962Z,101644.09
2023-02-16T20:24:05.354Z,101645.88
2023-02-16T20:26:51.901Z,101649.38
2023-02-16T20:29:37.414Z,101645.63
2023-02-16T20:32:26.058Z,101640.97
2023-02-16T20:35:10.940Z,101634.59
2023-02-16T20:37:55.676Z,101619.72
2023-02-16T20:40:41.398Z,101615.72
2023-02-16T20:43:26.428Z,101612.06
2023-02-16T20:46:13.031Z,101625.25
2023-02-16T20:48:58.341Z,101623.63
2023-02-16T20:51:43.388Z,101628.28
2023-02-16T20:54:28.546Z,101630.94
2023-02-16T20:57:26.011Z,101635.72
2023-02-16T21:00:16.833Z,101634.16
2023-02-16T21:03:01.932Z,101623.78
2023-02-16T21:05:46.755Z,101622.34
2023-02-16T21:08:31.970Z,101618.09
2023-02-16T21:11:17.396Z,101608.22
2023-02-16T21:14:02.960Z,101617.00
2023-02-16T21:16:48.251Z,101607.44
2023-02-16T21:19:33.291Z,101606.66
2023-02-16T21:22:18.453Z,101609.06
2023-02-16T21:25:03.558Z,101606.31
2023-02-16T21:27:48.730Z,101604.63
2023-02-16T21:30:33.993Z,101598.91
2023-02-16T21:33:19.346Z,101588.06
2023-02-16T21:36:25.480Z,101586.97
2023-02-16T21:39:11.114Z,101596.03
2023-02-16T21:41:56.207Z,101596.59
2023-02-16T21:44:44.956Z,101594.97
2023-02-16T21:47:48.510Z,101596.63
2023-02-16T21:50:37.219Z,101589.78
2023-02-16T21:53:22.236Z,101594.53
2023-02-16T21:56:19.186Z,101583.81
2023-02-16T21:59:06.232Z,101586.19
2023-02-16T22:01:51.799Z,101588.94
2023-02-16T22:04:36.929Z,101586.22
2023-02-16T22:07:21.824Z,101581.19
2023-02-16T22:10:08.768Z,101579.81
2023-02-16T22:12:54.942Z,101585.41
2023-02-16T22:15:40.240Z,101580.75
2023-02-16T22:18:25.094Z,101590.69
2023-02-16T22:21:11.105Z,101582.19
2023-02-16T22:23:57.730Z,101581.91
2023-02-16T22:26:43.385Z,101582.19
2023-02-16T22:29:28.221Z,101580.25
2023-02-16T22:32:13.738Z,101579.53
2023-02-16T22:34:58.653Z,101576.88
2023-02-16T22:37:43.658Z,101565.59
2023-02-16T22:40:28.612Z,101564.50
2023-02-16T22:43:13.769Z,101565.66
2023-02-16T22:45:58.649Z,101571.22
2023-02-16T22:48:44.688Z,101560.66
2023-02-16T22:51:30.524Z,101576.41
2023-02-16T22:54:16.108Z,101575.66
2023-02-16T22:57:01.272Z,101576.09
2023-02-16T22:59:46.149Z,101574.56
2023-02-16T23:02:32.163Z,101572.06
2023-02-16T23:05:16.967Z,101578.81
2023-02-16T23:08:02.182Z,101577.56
2023-02-16T23:10:59.816Z,101578.25
2023-02-16T23:13:45.388Z,101592.47
2023-02-16T23:16:32.190Z,101585.03
2023-02-16T23:19:19.499Z,101580.59
2023-02-16T23:22:04.462Z,101583.50
2023-02-16T23:25:09.304Z,101582.16
2023-02-16T23:27:54.542Z,101576.25
2023-02-16T23:30:44.375Z,101586.34
2023-02-16T23:33:29.680Z,101567.78
2023-02-16T23:36:14.767Z,101571.28
2023-02-16T23:39:01.752Z,101564.59
2023-02-16T23:41:46.605Z,101562.03
2023-02-16T23:44:31.596Z,101567.09
2023-02-16T23:47:16.406Z,101573.38
2023-02-16T23:50:01.570Z,101577.41
2023-02-16T23:52:46.477Z,101584.09
2023-02-16T23:55:31.663Z,101579.25
2023-02-16T23:58:16.556Z,101582.88
